Time;durP1;ratioP1;P1;durP2;ratioP2;P2;SDS_P1;SDS_P2;PMS_P1;PMS_P2;Temp;Humidity;BMP_temperature;BMP_pressure;BME280_temperature;BME280_humidity;BME280_pressure;Samples;Min_cycle;Max_cycle;Signal;HPM_P1;HPM_P2
2021/04/16 00:01:02;;;;;;;2.58;1.40;;;;;;;-0.03;79.96;102704.03;2584631;55;20149;-69
2021/04/16 00:03:30;;;;;;;8.00;1.83;;;;;;;-0.08;80.12;102697.03;2584306;55;20633;-71
2021/04/16 00:05:57;;;;;;;2.12;1.17;;;;;;;-0.07;79.96;102706.66;2584628;55;20125;-71
2021/04/16 00:08:27;;;;;;;2.12;0.80;;;;;;;-0.09;80.18;102704.03;2585939;55;20116;-71
2021/04/16 00:10:58;;;;;;;1.80;1.08;;;;;;;-0.04;79.48;102701.41;2583984;55;20112;-71
2021/04/16 00:13:26;;;;;;;2.87;1.00;;;;;;;0.01;79.54;102709.28;2585039;55;20114;-71
2021/04/16 00:15:54;;;;;;;3.60;1.00;;;;;;;0.00;79.75;102713.69;2583536;55;20619;-71
2021/04/16 00:18:26;;;;;;;1.12;0.82;;;;;;;0.05;78.38;102696.16;2585812;55;20485;-71
2021/04/16 00:20:55;;;;;;;1.80;1.12;;;;;;;0.11;78.20;102708.41;2583656;55;20155;-71
2021/04/16 00:23:23;;;;;;;1.02;0.80;;;;;;;0.11;77.92;102711.03;2585200;55;20116;-71
2021/04/16 00:25:51;;;;;;;1.17;0.80;;;;;;;0.06;78.64;102708.41;2585780;55;20614;-69
2021/04/16 00:28:18;;;;;;;3.83;1.70;;;;;;;0.10;77.72;102710.19;2584597;55;20116;-71
2021/04/16 00:30:49;;;;;;;2.37;0.73;;;;;;;0.22;77.63;102711.06;2584059;55;20139;-71
2021/04/16 00:33:16;;;;;;;2.40;0.80;;;;;;;0.24;77.53;102711.94;2583308;55;20559;-71
2021/04/16 00:35:44;;;;;;;1.37;0.75;;;;;;;0.14;77.40;102708.41;2584127;55;20158;-71
2021/04/16 00:38:15;;;;;;;1.05;0.70;;;;;;;0.16;77.18;102708.44;2584835;55;20134;-71
2021/04/16 00:40:45;;;;;;;1.90;0.90;;;;;;;0.17;77.26;102705.81;2584166;55;20502;-71
2021/04/16 00:43:14;;;;;;;1.00;0.65;;;;;;;0.19;77.23;102704.06;2585512;55;20147;-72
2021/04/16 00:45:41;;;;;;;1.58;0.70;;;;;;;0.21;77.01;102711.94;2584169;55;20117;-71
2021/04/16 00:48:24;;;;;;;2.22;0.68;;;;;;;0.26;76.26;102711.06;2584909;55;20127;-71
2021/04/16 00:50:55;;;;;;;1.02;0.73;;;;;;;0.31;76.23;102718.06;2584256;55;20124;-71
2021/04/16 00:53:25;;;;;;;0.93;0.68;;;;;;;0.28;76.76;102713.66;2585575;55;20127;-71
2021/04/16 00:55:54;;;;;;;1.50;0.55;;;;;;;0.25;76.77;102711.06;2583213;55;20120;-69
2021/04/16 00:58:27;;;;;;;1.77;0.80;;;;;;;0.26;76.15;102699.69;2586177;55;20603;-69
2021/04/16 01:00:57;;;;;;;1.83;1.45;;;;;;;0.26;76.31;102710.19;2584329;55;20109;-69
2021/04/16 01:03:25;;;;;;;1.80;0.85;;;;;;;0.21;75.95;102704.94;2584650;55;20146;-69
2021/04/16 01:05:54;;;;;;;4.93;0.88;;;;;;;0.26;76.20;102704.94;2582880;55;20184;-69
2021/04/16 01:08:22;;;;;;;2.83;0.80;;;;;;;0.25;76.43;102696.19;2583728;55;20133;-71
2021/04/16 01:10:50;;;;;;;1.70;0.85;;;;;;;0.18;76.61;102709.28;2583335;55;20101;-70
2021/04/16 01:13:19;;;;;;;1.25;0.70;;;;;;;0.12;76.43;102691.78;2583258;55;20117;-69
2021/04/16 01:15:53;;;;;;;3.08;0.90;;;;;;;0.09;77.03;102697.91;2583551;55;20128;-69
2021/04/16 01:18:23;;;;;;;1.12;0.95;;;;;;;0.16;76.75;102692.66;2583153;55;20110;-69
2021/04/16 01:20:53;;;;;;;2.37;0.75;;;;;;;0.21;76.68;102698.81;2582967;55;20564;-69
2021/04/16 01:23:27;;;;;;;2.12;0.82;;;;;;;0.20;76.82;102691.78;2585405;55;20132;-69
2021/04/16 01:25:57;;;;;;;2.10;1.10;;;;;;;0.11;76.49;102690.03;2585670;55;20129;-69
2021/04/16 01:28:24;;;;;;;1.80;0.90;;;;;;;0.15;76.41;102694.44;2585460;55;20125;-71
2021/04/16 01:30:57;;;;;;;2.83;1.05;;;;;;;0.16;76.31;102696.19;2583471;55;20516;-69
2021/04/16 01:33:26;;;;;;;1.20;0.80;;;;;;;0.15;75.79;102694.44;2581841;55;20121;-71
2021/04/16 01:35:54;;;;;;;2.28;0.90;;;;;;;0.09;76.17;102699.69;2584028;55;20116;-69
2021/04/16 01:38:22;;;;;;;1.48;1.00;;;;;;;0.08;76.52;102695.31;2585573;55;20612;-68
2021/04/16 01:40:50;;;;;;;2.67;0.55;;;;;;;0.16;75.19;102698.81;2583801;55;20124;-69
2021/04/16 01:43:23;;;;;;;1.35;0.68;;;;;;;0.18;75.29;102701.41;2582370;55;20125;-69
2021/04/16 01:46:00;;;;;;;1.02;0.77;;;;;;;0.16;75.43;102698.81;2581858;55;20817;-71
2021/04/16 01:48:35;;;;;;;2.58;0.80;;;;;;;0.13;75.69;102702.31;2582592;55;20108;-68
2021/04/16 01:51:03;;;;;;;1.35;0.80;;;;;;;0.10;75.60;102704.94;2583239;55;20113;-71
2021/04/16 01:53:30;;;;;;;0.93;0.62;;;;;;;0.04;75.80;102699.66;2584026;55;20157;-71
2021/04/16 01:55:57;;;;;;;1.27;0.73;;;;;;;0.09;75.41;102708.41;2584926;55;20113;-71
2021/04/16 01:58:26;;;;;;;1.37;0.80;;;;;;;0.02;75.61;102706.69;2582941;55;20668;-71
2021/04/16 02:00:54;;;;;;;3.42;0.90;;;;;;;0.03;75.11;102705.81;2583698;55;20619;-71
2021/04/16 02:03:22;;;;;;;2.00;0.80;;;;;;;-0.03;76.10;102700.53;2585018;55;20117;-69
2021/04/16 02:05:49;;;;;;;1.05;0.50;;;;;;;-0.08;75.59;102703.16;2584549;55;20146;-69
2021/04/16 02:08:16;;;;;;;1.70;0.80;;;;;;;-0.06;75.75;102697.91;2582817;55;20120;-69
2021/04/16 02:10:44;;;;;;;3.75;1.67;;;;;;;-0.04;75.68;102701.41;2583216;55;20106;-69
2021/04/16 02:13:12;;;;;;;0.95;0.62;;;;;;;-0.08;76.05;102697.03;2584456;55;20147;-69
2021/04/16 02:15:41;;;;;;;1.75;0.70;;;;;;;0.00;75.56;102703.19;2584877;55;20139;-69
2021/04/16 02:18:09;;;;;;;1.17;0.70;;;;;;;-0.11;75.18;102678.66;2582828;55;20123;-71
2021/04/16 02:20:36;;;;;;;0.82;0.50;;;;;;;0.02;74.44;102693.56;2584767;55;20160;-72
2021/04/16 02:23:05;;;;;;;2.90;0.70;;;;;;;0.13;74.61;102698.78;2584425;55;20109;-71
2021/04/16 02:25:32;;;;;;;2.17;0.70;;;;;;;0.07;75.00;102688.31;2583684;55;20138;-71
2021/04/16 02:28:00;;;;;;;0.75;0.37;;;;;;;0.16;74.33;102688.31;2587313;55;20636;-69
2021/04/16 02:30:31;;;;;;;0.57;0.40;;;;;;;0.17;74.73;102695.31;2587509;55;20108;-69
2021/04/16 02:32:59;;;;;;;0.70;0.60;;;;;;;0.18;75.08;102685.66;2587698;55;20537;-71
2021/04/16 02:35:27;;;;;;;0.60;0.50;;;;;;;0.15;75.66;102690.94;2587150;55;20121;-71
2021/04/16 02:37:55;;;;;;;1.90;0.70;;;;;;;0.08;76.01;102696.16;2587803;55;20139;-71
2021/04/16 02:40:25;;;;;;;0.88;0.60;;;;;;;0.12;75.72;102700.56;2587461;55;20646;-71
2021/04/16 02:42:53;;;;;;;1.60;0.55;;;;;;;0.10;76.52;102704.94;2587448;55;20124;-71
2021/04/16 02:45:23;;;;;;;4.70;0.80;;;;;;;0.13;76.30;102704.03;2588010;55;20104;-71
2021/04/16 02:47:51;;;;;;;0.93;0.50;;;;;;;0.11;76.66;102695.28;2587995;55;20135;-71
2021/04/16 02:50:24;;;;;;;0.73;0.65;;;;;;;0.10;76.47;102699.69;2588219;55;20117;-71
2021/04/16 02:52:52;;;;;;;1.77;0.65;;;;;;;0.08;77.03;102704.03;2588547;55;20130;-71
2021/04/16 02:55:19;;;;;;;1.12;0.80;;;;;;;0.08;77.00;102698.78;2588027;55;20105;-71
2021/04/16 02:57:46;;;;;;;1.48;0.65;;;;;;;0.10;76.47;102704.94;2588279;55;20130;-71
2021/04/16 03:00:17;;;;;;;2.10;1.02;;;;;;;0.14;76.34;102695.28;2588340;55;20119;-71
2021/04/16 03:02:44;;;;;;;2.60;1.10;;;;;;;0.19;76.66;102692.66;2588169;55;20115;-71
2021/04/16 03:05:12;;;;;;;1.00;0.70;;;;;;;0.16;76.76;102695.28;2588278;55;20502;-71
2021/04/16 03:07:40;;;;;;;1.30;0.90;;;;;;;0.21;76.51;102696.19;2588527;55;20135;-71
2021/04/16 03:10:09;;;;;;;0.60;0.60;;;;;;;-0.06;76.23;102648.06;2587990;55;20142;-71
2021/04/16 03:12:36;;;;;;;1.98;0.73;;;;;;;0.25;76.44;102703.19;2588224;55;20123;-69
2021/04/16 03:15:05;;;;;;;2.10;0.98;;;;;;;0.27;77.04;102696.16;2588369;55;20165;-69
2021/04/16 03:17:33;;;;;;;2.30;1.05;;;;;;;0.28;76.57;102697.91;2587923;55;20124;-71
2021/04/16 03:20:00;;;;;;;1.85;0.60;;;;;;;0.34;76.25;102703.19;2588208;55;20113;-69
2021/04/16 03:22:28;;;;;;;2.83;0.95;;;;;;;0.37;76.40;102697.91;2588424;55;20147;-71
2021/04/16 03:24:56;;;;;;;5.43;1.52;;;;;;;0.40;76.57;102697.94;2587784;55;20120;-69
2021/04/16 03:27:23;;;;;;;1.10;1.00;;;;;;;0.53;76.25;102708.44;2588627;55;20132;-71
2021/04/16 03:29:51;;;;;;;6.68;1.70;;;;;;;0.54;76.31;102710.19;2588444;55;20124;-71
2021/04/16 03:32:18;;;;;;;5.03;2.00;;;;;;;0.59;75.67;102711.03;2588026;55;20132;-71
2021/04/16 03:34:45;;;;;;;8.93;2.60;;;;;;;0.63;76.23;102704.91;2588277;55;20117;-71
2021/04/16 03:37:13;;;;;;;4.65;1.70;;;;;;;0.69;75.54;102704.03;2588118;55;20128;-71
2021/04/16 03:39:40;;;;;;;2.72;1.33;;;;;;;0.77;75.50;102706.62;2587808;55;20400;-71
2021/04/16 03:42:08;;;;;;;2.12;0.98;;;;;;;0.86;75.31;102711.87;2588435;55;20131;-71
2021/04/16 03:44:36;;;;;;;1.15;0.77;;;;;;;1.02;75.05;102714.47;2588066;55;20120;-71
2021/04/16 03:47:03;;;;;;;1.87;0.70;;;;;;;1.20;74.09;102716.16;2588112;55;20625;-72
2021/04/16 03:49:30;;;;;;;2.15;1.20;;;;;;;1.38;73.41;102713.44;2588048;55;20526;-69
2021/04/16 03:52:00;;;;;;;3.37;1.20;;;;;;;1.59;71.89;102713.34;2588142;55;20128;-71
2021/04/16 03:54:28;;;;;;;1.05;0.77;;;;;;;1.79;71.15;102716.72;2587909;55;20113;-69
2021/04/16 03:56:56;;;;;;;2.40;0.98;;;;;;;1.92;70.46;102721.94;2588205;55;20176;-71
2021/04/16 03:59:25;;;;;;;2.37;0.82;;;;;;;2.07;70.43;102711.28;2587962;55;20139;-71
2021/04/16 04:01:53;;;;;;;1.30;0.80;;;;;;;2.23;69.15;102726.97;2588306;55;20132;-71
2021/04/16 04:04:22;;;;;;;1.30;1.10;;;;;;;2.33;68.92;102712.84;2587777;55;20255;-71
2021/04/16 04:06:50;;;;;;;3.92;1.00;;;;;;;2.48;66.85;102726.75;2588078;55;20116;-71
2021/04/16 04:09:18;;;;;;;3.37;1.30;;;;;;;2.57;66.92;102726.69;2588015;55;20127;-69
2021/04/16 04:11:45;;;;;;;3.67;1.50;;;;;;;2.74;66.37;102723.00;2588094;55;20598;-71
2021/04/16 04:14:13;;;;;;;2.60;1.33;;;;;;;2.89;65.17;102732.53;2588368;55;20132;-71
2021/04/16 04:16:52;;;;;;;4.15;1.10;;;;;;;3.05;64.63;102733.22;2588061;55;20117;-71
2021/04/16 04:19:21;;;;;;;4.10;1.40;;;;;;;3.14;64.42;102730.50;2587879;55;20568;-71
2021/04/16 04:21:48;;;;;;;1.98;1.40;;;;;;;3.34;61.97;102721.47;2588245;55;20122;-71
2021/04/16 04:24:16;;;;;;;5.35;1.40;;;;;;;3.45;62.90;102730.12;2587864;55;20121;-71
2021/04/16 04:26:44;;;;;;;2.00;1.12;;;;;;;3.64;61.24;102739.53;2588079;55;20146;-71
2021/04/16 04:29:13;;;;;;;3.17;1.60;;;;;;;3.74;60.97;102734.13;2588085;55;20131;-71
2021/04/16 04:31:47;;;;;;;2.50;1.15;;;;;;;3.85;60.53;102730.47;2587959;55;20634;-72
2021/04/16 04:34:17;;;;;;;5.43;1.37;;;;;;;3.96;59.78;102732.94;2588116;55;20113;-69
2021/04/16 04:36:45;;;;;;;1.27;0.80;;;;;;;4.00;59.25;102735.50;2587813;55;20128;-71
2021/04/16 04:39:12;;;;;;;3.55;1.02;;;;;;;3.99;58.88;102731.13;2587844;55;20137;-71
2021/04/16 04:41:40;;;;;;;3.00;1.33;;;;;;;3.96;58.25;102722.38;2588051;55;20132;-71
2021/04/16 04:44:09;;;;;;;2.17;0.80;;;;;;;4.10;57.69;102728.31;2588140;55;20125;-71
2021/04/16 04:46:37;;;;;;;1.60;1.05;;;;;;;4.19;57.68;102735.22;2587857;55;20155;-70
2021/04/16 04:49:06;;;;;;;4.60;2.28;;;;;;;4.34;57.31;102733.25;2588048;55;20177;-71
2021/04/16 04:51:36;;;;;;;3.58;1.67;;;;;;;4.56;55.80;102733.72;2588113;55;20511;-71
2021/04/16 04:54:04;;;;;;;1.73;0.93;;;;;;;4.63;55.63;102739.81;2587829;55;20182;-69
2021/04/16 04:56:32;;;;;;;1.42;0.65;;;;;;;4.83;55.08;102742.97;2588023;55;20522;-69
2021/04/16 04:58:59;;;;;;;1.20;0.77;;;;;;;4.96;54.32;102746.25;2588011;55;20116;-70
2021/04/16 05:01:26;;;;;;;0.75;0.62;;;;;;;5.01;52.89;102740.84;2587471;55;20147;-69
2021/04/16 05:03:54;;;;;;;1.55;0.60;;;;;;;5.13;53.03;102737.09;2588290;55;20184;-69
2021/04/16 05:06:21;;;;;;;1.75;1.00;;;;;;;5.25;52.45;102741.28;2588053;55;20135;-69
2021/04/16 05:08:49;;;;;;;1.95;0.50;;;;;;;5.39;51.23;102741.00;2587534;55;20129;-69
2021/04/16 05:11:17;;;;;;;0.77;0.47;;;;;;;5.43;50.60;102737.38;2588026;55;20568;-69
2021/04/16 05:13:44;;;;;;;0.90;0.43;;;;;;;5.35;50.87;102713.72;2588042;55;20511;-71
2021/04/16 05:16:12;;;;;;;1.25;0.68;;;;;;;5.60;50.14;102733.50;2587682;55;20116;-69
2021/04/16 05:18:40;;;;;;;2.80;0.70;;;;;;;5.67;50.93;102737.78;2587788;55;20146;-69
2021/04/16 05:21:07;;;;;;;0.60;0.57;;;;;;;5.79;49.57;102739.25;2587899;55;20112;-71
2021/04/16 05:23:34;;;;;;;1.55;0.40;;;;;;;5.83;51.27;102740.94;2588098;55;20242;-70
2021/04/16 05:26:03;;;;;;;1.15;0.50;;;;;;;5.99;48.47;102730.84;2587742;55;20139;-69
2021/04/16 05:28:30;;;;;;;2.53;0.60;;;;;;;5.91;49.14;102736.34;2587952;55;20120;-71
2021/04/16 05:30:57;;;;;;;0.45;0.20;;;;;;;5.91;47.52;102728.41;2587682;55;20127;-71
2021/04/16 05:33:25;;;;;;;1.70;0.47;;;;;;;5.93;49.01;102731.87;2588082;55;20135;-71
2021/04/16 05:35:52;;;;;;;1.50;0.57;;;;;;;6.11;47.83;102732.34;2587689;55;20123;-71
2021/04/16 05:38:19;;;;;;;0.77;0.55;;;;;;;6.36;47.72;102734.41;2587459;55;20112;-71
2021/04/16 05:40:47;;;;;;;1.67;0.90;;;;;;;6.45;47.35;102734.19;2587792;55;20112;-71
2021/04/16 05:43:15;;;;;;;1.58;0.68;;;;;;;6.56;46.33;102735.69;2587927;55;20124;-71
2021/04/16 05:45:42;;;;;;;2.58;1.02;;;;;;;6.61;47.89;102737.31;2587658;55;20105;-71
2021/04/16 05:48:10;;;;;;;3.33;0.80;;;;;;;6.84;47.06;102738.47;2584790;55;20139;-71
2021/04/16 05:50:37;;;;;;;2.62;0.50;;;;;;;6.85;44.78;102734.91;2586956;55;20138;-71
2021/04/16 05:53:04;;;;;;;1.42;0.37;;;;;;;6.73;46.27;102733.47;2587872;55;20530;-71
2021/04/16 05:55:31;;;;;;;1.80;0.80;;;;;;;6.78;45.68;102730.69;2587537;55;20120;-71
2021/04/16 05:57:59;;;;;;;0.50;0.30;;;;;;;6.82;45.96;102738.53;2587575;55;20117;-70
2021/04/16 06:00:28;;;;;;;1.25;0.60;;;;;;;6.89;45.58;102735.69;2585221;55;20134;-70
2021/04/16 06:02:55;;;;;;;1.60;0.88;;;;;;;6.90;45.43;102745.41;2582325;55;20641;-71
2021/04/16 06:05:23;;;;;;;4.47;1.10;;;;;;;7.04;43.68;102740.59;2582538;55;20228;-71
2021/04/16 06:07:53;;;;;;;4.30;3.03;;;;;;;7.09;43.87;102741.31;2582491;55;20109;-72
2021/04/16 06:10:22;;;;;;;1.52;0.60;;;;;;;7.18;43.80;102737.56;2582246;55;20120;-72
2021/04/16 06:12:49;;;;;;;2.30;1.10;;;;;;;7.25;43.59;102740.91;2582337;55;20519;-71
2021/04/16 06:15:18;;;;;;;0.90;0.50;;;;;;;7.29;43.77;102731.91;2582180;55;20116;-70
2021/04/16 06:17:47;;;;;;;2.87;0.62;;;;;;;7.32;43.97;102731.84;2582375;55;20110;-72
2021/04/16 06:20:18;;;;;;;2.15;0.80;;;;;;;7.38;42.79;102726.34;2583008;55;20138;-71
2021/04/16 06:22:47;;;;;;;;;;;;;;;7.69;43.31;102731.66;2583239;55;20139;-71
2021/04/16 06:25:17;;;;;;;3.95;0.50;;;;;;;7.66;41.56;102727.28;2581652;55;20010;-71
2021/04/16 06:27:44;;;;;;;1.52;0.50;;;;;;;7.75;41.24;102739.44;2581940;55;20124;-72
2021/04/16 06:30:14;;;;;;;2.92;0.70;;;;;;;7.57;42.37;102709.00;2581275;55;20147;-72
2021/04/16 06:32:41;;;;;;;2.90;0.60;;;;;;;7.68;40.68;102729.91;2581973;55;20133;-71
2021/04/16 06:35:14;;;;;;;1.40;0.68;;;;;;;7.68;41.49;102736.09;2581863;55;20754;-72
2021/04/16 06:37:42;;;;;;;1.25;0.60;;;;;;;7.63;39.37;102730.03;2582211;55;20119;-72
2021/04/16 06:40:13;;;;;;;1.23;0.57;;;;;;;7.69;40.41;102721.00;2582786;55;20098;-71
2021/04/16 06:42:41;;;;;;;1.62;0.60;;;;;;;7.71;39.02;102732.47;2583430;55;20121;-71
2021/04/16 06:45:18;;;;;;;0.82;0.43;;;;;;;7.93;37.74;102722.03;2582933;55;20144;-72
2021/04/16 06:47:53;;;;;;;2.15;0.43;;;;;;;7.94;38.63;102719.34;2583155;55;20117;-72
2021/04/16 06:50:24;;;;;;;1.10;0.30;;;;;;;8.03;38.14;102722.63;2582941;55;20112;-71
2021/04/16 06:52:58;;;;;;;1.42;0.40;;;;;;;8.15;37.92;102722.22;2583069;55;20116;-71
2021/04/16 06:55:30;;;;;;;1.10;0.30;;;;;;;8.35;36.29;102726.00;2583344;55;20151;-72
2021/04/16 06:58:12;;;;;;;0.62;0.55;;;;;;;8.23;36.24;102721.94;2583149;55;20477;-71
2021/04/16 07:00:44;;;;;;;3.12;0.70;;;;;;;8.42;37.30;102726.66;2583352;55;20105;-71
2021/04/16 07:03:18;;;;;;;2.12;0.73;;;;;;;8.48;35.66;102718.47;2583252;55;20114;-72
2021/04/16 07:05:51;;;;;;;2.95;0.70;;;;;;;8.54;35.12;102722.75;2582858;55;20139;-70
2021/04/16 07:08:30;;;;;;;4.45;0.50;;;;;;;8.59;35.89;102716.34;2583493;55;20581;-70
2021/04/16 07:11:01;;;;;;;0.88;0.60;;;;;;;8.58;35.33;102729.69;2583075;55;20125;-72
2021/04/16 07:13:34;;;;;;;1.73;0.30;;;;;;;8.56;34.50;102726.22;2583129;55;20136;-72
2021/04/16 07:16:01;;;;;;;0.77;0.50;;;;;;;8.61;35.12;102730.47;2582745;55;20128;-71
2021/04/16 07:18:34;;;;;;;2.12;0.37;;;;;;;8.69;34.46;102724.00;2582973;55;20123;-72
2021/04/16 07:21:03;;;;;;;1.65;0.43;;;;;;;8.74;35.38;102722.03;2582760;55;20523;-71
2021/04/16 07:23:33;;;;;;;0.32;0.22;;;;;;;8.81;33.92;102720.03;2583232;55;20124;-71
2021/04/16 07:26:15;;;;;;;2.00;1.17;;;;;;;8.81;35.82;102731.56;2582809;55;20109;-72
2021/04/16 07:28:50;;;;;;;1.23;0.43;;;;;;;8.91;35.07;102722.31;2582931;55;20113;-70
2021/04/16 07:31:32;;;;;;;0.80;0.45;;;;;;;8.95;34.79;102723.06;2582750;55;20116;-72
2021/04/16 07:34:01;;;;;;;1.23;0.32;;;;;;;9.09;34.74;102735.00;2583411;55;20112;-71
2021/04/16 07:36:36;;;;;;;2.10;0.37;;;;;;;9.07;34.51;102739.53;2582969;55;20121;-71
2021/04/16 07:39:23;;;;;;;0.30;0.30;;;;;;;9.04;33.73;102736.06;2582846;55;20109;-72
2021/04/16 07:41:54;;;;;;;2.17;0.75;;;;;;;9.23;34.80;102727.38;2582980;55;20112;-71
2021/04/16 07:44:25;;;;;;;1.65;0.40;;;;;;;9.32;34.64;102732.38;2583061;55;20610;-72
2021/04/16 07:46:55;;;;;;;1.12;0.60;;;;;;;9.49;34.70;102733.50;2582777;55;20143;-69
2021/04/16 07:49:31;;;;;;;0.95;0.77;;;;;;;9.63;35.57;102724.13;2583086;55;20139;-71
2021/04/16 07:52:20;;;;;;;0.50;0.47;;;;;;;10.01;34.28;102735.03;2582618;55;20137;-72
2021/04/16 07:55:23;;;;;;;0.35;0.30;;;;;;;9.93;34.09;102729.16;2583244;55;20499;-71
2021/04/16 07:58:04;;;;;;;0.95;0.50;;;;;;;9.90;35.45;102724.81;2582944;55;20132;-71
2021/04/16 08:00:36;;;;;;;0.90;0.62;;;;;;;9.86;32.80;102720.53;2582837;55;20113;-72
2021/04/16 08:03:11;;;;;;;1.05;0.47;;;;;;;9.95;34.82;102729.97;2583173;55;20122;-70
2021/04/16 08:05:43;;;;;;;0.60;0.35;;;;;;;10.14;34.43;102735.41;2582530;55;20117;-71
2021/04/16 08:08:12;;;;;;;;;;;;;;;10.36;33.16;102735.37;2583357;55;20178;-71
2021/04/16 08:10:41;;;;;;;0.62;0.30;;;;;;;10.19;34.46;102730.75;2582836;55;20013;-71
2021/04/16 08:13:13;;;;;;;0.40;0.20;;;;;;;10.16;33.23;102722.88;2583181;55;20445;-72
2021/04/16 08:15:41;;;;;;;0.57;0.30;;;;;;;10.13;32.87;102721.22;2582619;55;20761;-71
2021/04/16 08:18:11;;;;;;;0.57;0.40;;;;;;;10.09;32.55;102708.94;2582807;55;20104;-70
2021/04/16 08:20:51;;;;;;;4.70;0.88;;;;;;;10.03;33.39;102725.19;2582733;55;20136;-70
2021/04/16 08:23:20;;;;;;;0.53;0.23;;;;;;;9.99;33.10;102715.56;2583110;55;20117;-72
2021/04/16 08:25:53;;;;;;;2.00;0.50;;;;;;;10.03;35.53;102722.53;2582813;55;20113;-72
2021/04/16 08:28:25;;;;;;;1.12;0.50;;;;;;;10.37;34.48;102720.22;2582829;55;20814;-72
2021/04/16 08:30:58;;;;;;;1.65;0.55;;;;;;;10.56;34.74;102725.69;2582775;55;20126;-72
2021/04/16 08:33:32;;;;;;;3.37;0.75;;;;;;;10.50;33.01;102700.16;2583285;55;20116;-72
2021/04/16 08:36:07;;;;;;;0.75;0.40;;;;;;;10.63;33.79;102716.50;2582434;55;20125;-71
2021/04/16 08:38:45;;;;;;;0.93;0.60;;;;;;;10.55;33.20;102730.16;2582790;55;20121;-71
2021/04/16 08:41:13;;;;;;;0.57;0.35;;;;;;;10.52;32.56;102732.97;2582626;55;20113;-71
2021/04/16 08:43:44;;;;;;;2.30;0.73;;;;;;;10.30;34.61;102730.31;2582740;55;20522;-71
2021/04/16 08:46:23;;;;;;;2.55;0.60;;;;;;;10.51;34.78;102719.69;2582850;55;20186;-71
2021/04/16 08:48:54;;;;;;;1.85;0.68;;;;;;;10.74;32.67;102723.16;2583260;55;20121;-71
2021/04/16 08:51:27;;;;;;;2.72;1.10;;;;;;;10.71;34.51;102725.03;2582614;55;20169;-72
2021/04/16 08:54:07;;;;;;;1.95;0.43;;;;;;;10.81;35.29;102717.50;2582772;55;21069;-71
2021/04/16 08:56:41;;;;;;;1.48;0.50;;;;;;;10.96;33.53;102726.62;2582368;55;20135;-71
2021/04/16 08:59:14;;;;;;;0.73;0.43;;;;;;;10.96;33.95;102723.94;2582731;55;20121;-72
2021/04/16 09:01:50;;;;;;;0.85;0.70;;;;;;;10.91;33.26;102715.25;2583068;55;20116;-71
2021/04/16 09:04:25;;;;;;;2.60;0.65;;;;;;;10.92;33.59;102711.69;2582485;55;20121;-72
2021/04/16 09:06:56;;;;;;;2.50;0.70;;;;;;;10.93;35.48;102709.84;2582442;55;20143;-72
2021/04/16 09:09:38;;;;;;;;;;;;;;;11.22;33.98;102713.88;2583230;55;20124;-72
2021/04/16 09:12:07;;;;;;;1.60;0.52;;;;;;;10.84;35.44;102721.81;2582373;55;19991;-72
2021/04/16 09:14:56;;;;;;;1.58;0.62;;;;;;;10.74;35.53;102725.84;2582979;55;20627;-72
2021/04/16 09:17:56;;;;;;;0.68;0.50;;;;;;;10.73;34.16;102714.28;2582603;55;20124;-71
2021/04/16 09:20:26;;;;;;;0.57;0.40;;;;;;;10.69;33.93;102721.56;2582250;55;20511;-71
2021/04/16 09:22:54;;;;;;;1.25;0.50;;;;;;;10.49;34.33;102713.53;2582828;55;20134;-71
2021/04/16 09:25:47;;;;;;;0.90;0.40;;;;;;;10.66;34.21;102721.69;2582464;55;20109;-72
2021/04/16 09:28:49;;;;;;;0.40;0.20;;;;;;;10.50;34.66;102701.94;2582703;55;20121;-71
2021/04/16 09:31:52;;;;;;;0.68;0.40;;;;;;;10.68;34.75;102711.81;2582438;55;20115;-71
2021/04/16 09:34:23;;;;;;;1.23;0.52;;;;;;;10.49;34.12;102711.75;2582465;55;20112;-71
2021/04/16 09:36:52;;;;;;;;;;;;;;;10.82;33.84;102715.66;2582877;55;20132;-72
2021/04/16 09:39:36;;;;;;;1.20;0.47;;;;;;;10.48;35.22;102698.47;2582506;55;20011;-72
2021/04/16 09:42:34;;;;;;;1.77;0.60;;;;;;;10.49;36.07;102708.22;2581423;55;20138;-71
2021/04/16 09:45:07;;;;;;;2.15;0.35;;;;;;;10.66;33.72;102704.81;2577431;55;20120;-70
2021/04/16 09:47:51;;;;;;;1.17;0.60;;;;;;;10.67;34.09;102712.75;2582701;55;20108;-72
2021/04/16 09:50:30;;;;;;;3.20;0.50;;;;;;;10.66;35.12;102705.69;2582303;55;20124;-71
2021/04/16 09:53:19;;;;;;;0.80;0.37;;;;;;;10.79;34.00;102707.81;2582693;55;20640;-71
2021/04/16 09:56:18;;;;;;;0.68;0.40;;;;;;;10.82;34.10;102721.87;2582304;55;20117;-72
2021/04/16 09:59:29;;;;;;;3.40;0.40;;;;;;;10.81;34.85;102716.59;2582454;55;20638;-71
2021/04/16 10:02:31;;;;;;;3.78;0.88;;;;;;;10.87;34.69;102713.66;2582502;55;20121;-72
2021/04/16 10:05:06;;;;;;;0.57;0.45;;;;;;;10.72;34.61;102720.56;2582205;55;20129;-71
2021/04/16 10:07:39;;;;;;;0.60;0.50;;;;;;;10.71;34.70;102719.69;2582544;55;20143;-71
2021/04/16 10:10:14;;;;;;;2.47;0.50;;;;;;;10.69;34.27;102710.03;2582457;55;20579;-71
2021/04/16 10:12:41;;;;;;;0.62;0.40;;;;;;;10.83;33.83;102712.94;2582645;55;20115;-71
2021/04/16 10:15:22;;;;;;;0.28;0.28;;;;;;;10.96;32.76;102710.59;2582527;55;20125;-72
2021/04/16 10:17:56;;;;;;;5.53;0.73;;;;;;;10.88;33.44;102715.41;2582338;55;20135;-71
2021/04/16 10:20:27;;;;;;;0.85;0.40;;;;;;;10.79;34.55;102714.03;2582246;55;20123;-71
2021/04/16 10:23:02;;;;;;;0.60;0.60;;;;;;;10.74;34.93;102717.84;2582249;55;20679;-71
2021/04/16 12:39:25;;;;;;;1.02;0.30;;;;;;;12.12;27.64;102655.25;2560271;56;20153;-72
2021/04/16 12:41:55;;;;;;;0.30;0.30;;;;;;;12.06;26.78;102666.25;2563152;55;20651;-72
2021/04/16 12:44:29;;;;;;;1.27;0.68;;;;;;;12.00;27.62;102651.34;2582428;55;20124;-72
2021/04/16 12:47:02;;;;;;;1.58;1.05;;;;;;;12.09;27.81;102655.41;2582655;55;20108;-72
2021/04/16 12:49:30;;;;;;;1.42;0.75;;;;;;;12.07;28.24;102655.47;2582909;55;20652;-72
2021/04/16 12:51:58;;;;;;;4.60;1.80;;;;;;;12.04;27.74;102642.28;2582741;55;20746;-72
2021/04/16 12:54:25;;;;;;;2.03;0.45;;;;;;;12.08;27.60;102657.22;2582830;55;20121;-72
2021/04/16 12:56:53;;;;;;;3.53;0.88;;;;;;;12.03;27.52;102639.66;2582338;55;20109;-72
2021/04/16 12:59:24;;;;;;;5.03;0.40;;;;;;;11.84;27.46;102645.91;2582592;55;20599;-72
2021/04/16 13:01:53;;;;;;;1.52;0.43;;;;;;;11.72;28.54;102652.72;2582524;55;20136;-72
2021/04/16 13:04:26;;;;;;;1.12;0.50;;;;;;;11.82;27.43;102647.78;2582674;55;20129;-72
2021/04/16 13:06:58;;;;;;;0.62;0.40;;;;;;;11.80;28.09;102638.97;2582838;55;20117;-72
2021/04/16 13:09:26;;;;;;;0.73;0.30;;;;;;;11.85;27.02;102636.09;2582248;55;20128;-73
2021/04/16 13:11:53;;;;;;;1.73;0.60;;;;;;;11.90;28.05;102634.03;2582689;55;20134;-72
2021/04/16 13:14:20;;;;;;;3.17;0.62;;;;;;;12.00;28.79;102634.44;2582706;55;20120;-72
2021/04/16 13:16:48;;;;;;;2.87;1.10;;;;;;;12.19;28.04;102634.38;2582496;55;20171;-72
2021/04/16 13:19:24;;;;;;;3.00;0.85;;;;;;;12.07;27.50;102627.84;2582931;55;20120;-72
2021/04/16 13:21:56;;;;;;;1.73;1.10;;;;;;;12.18;26.80;102627.31;2582466;55;20120;-72
2021/04/16 13:24:24;;;;;;;1.12;0.50;;;;;;;11.96;27.89;102623.88;2582886;55;20125;-72
2021/04/16 13:26:51;;;;;;;1.17;0.50;;;;;;;12.11;28.48;102614.22;2582518;55;20132;-72
2021/04/16 13:29:18;;;;;;;4.12;0.50;;;;;;;12.13;28.41;102614.16;2582367;55;20524;-72
2021/04/16 13:31:46;;;;;;;2.95;0.30;;;;;;;11.88;27.02;102638.59;2582587;55;20106;-72
2021/04/16 13:34:14;;;;;;;1.60;0.60;;;;;;;11.71;27.39;102626.91;2582407;55;20112;-72
2021/04/16 13:36:42;;;;;;;2.10;0.62;;;;;;;11.58;27.97;102629.34;2582711;55;20133;-72
2021/04/16 13:39:09;;;;;;;5.53;0.50;;;;;;;11.53;27.86;102615.34;2582484;55;20140;-72
2021/04/16 13:41:37;;;;;;;0.65;0.40;;;;;;;11.53;28.41;102628.69;2582632;55;20635;-72
2021/04/16 13:44:05;;;;;;;2.72;0.82;;;;;;;11.50;28.72;102626.19;2582783;55;20123;-73
2021/04/16 13:46:35;;;;;;;3.87;1.42;;;;;;;11.52;28.24;102614.50;2582098;55;20121;-73
2021/04/16 13:49:05;;;;;;;1.77;0.68;;;;;;;11.53;28.22;102602.84;2582522;55;20138;-72
2021/04/16 13:51:34;;;;;;;1.77;0.90;;;;;;;11.47;28.00;102600.47;2582451;55;20539;-72
2021/04/16 13:54:03;;;;;;;1.17;0.93;;;;;;;11.40;27.87;102604.38;2582468;55;20548;-72
2021/04/16 13:56:31;;;;;;;4.22;2.12;;;;;;;11.38;28.46;102606.25;2582459;55;20125;-73
2021/04/16 13:58:58;;;;;;;3.12;2.35;;;;;;;11.34;27.72;102615.38;2582659;55;20134;-73
2021/04/16 14:01:26;;;;;;;2.28;1.10;;;;;;;11.25;27.31;102604.19;2582359;55;20139;-72
2021/04/16 14:04:00;;;;;;;1.37;1.05;;;;;;;11.13;27.23;102602.97;2582567;55;20133;-72